createdAt,value
2018-01-24T15:50:02.584Z,-66
2018-01-24T15:51:02.254Z,-66
2018-01-24T15:52:02.110Z,-69
2018-01-24T15:53:02.227Z,-68
2018-01-24T15:54:02.133Z,-67
2018-01-24T15:55:02.239Z,-68
2018-01-24T15:56:02.184Z,-69
2018-01-24T15:57:02.233Z,-69
2018-01-24T15:58:02.136Z,-67
2018-01-24T15:59:02.326Z,-66
2018-01-24T16:00:02.128Z,-68
2018-01-24T16:01:02.244Z,-69
2018-01-24T16:02:02.563Z,-69
2018-01-24T16:03:02.241Z,-71
2018-01-24T16:04:02.191Z,-71
2018-01-24T16:05:02.237Z,-70
2018-01-24T16:06:02.157Z,-70
2018-01-24T16:07:02.240Z,-69
2018-01-24T16:08:02.158Z,-69
2018-01-24T16:09:02.242Z,-70
2018-01-24T16:10:02.131Z,-69
2018-01-24T16:11:02.247Z,-69
2018-01-24T16:12:02.134Z,-69
2018-01-24T16:13:02.262Z,-71
2018-01-24T16:14:02.185Z,-71
2018-01-24T16:15:02.250Z,-69
2018-01-24T16:16:02.132Z,-71
2018-01-24T16:17:02.266Z,-70
2018-01-24T16:18:02.133Z,-71
2018-01-24T16:19:02.256Z,-72
2018-01-24T16:20:02.169Z,-70
2018-01-24T16:21:02.238Z,-72
2018-01-24T16:22:02.194Z,-70
2018-01-24T16:23:02.259Z,-70
2018-01-24T16:24:02.143Z,-71
2018-01-24T16:25:02.263Z,-70
2018-01-24T16:26:02.568Z,-72
2018-01-24T16:27:02.263Z,-71
2018-01-24T16:28:02.162Z,-71
2018-01-24T16:29:02.255Z,-72
2018-01-24T16:30:02.175Z,-70
2018-01-24T16:31:02.261Z,-71
2018-01-24T16:32:02.277Z,-70
2018-01-24T16:33:02.259Z,-69
2018-01-24T16:34:02.189Z,-69
2018-01-24T16:35:02.292Z,-70
2018-01-24T16:36:02.153Z,-69
2018-01-24T16:37:02.272Z,-69
2018-01-24T16:38:02.428Z,-70
2018-01-24T16:39:02.274Z,-69
2018-01-24T16:40:02.150Z,-71
2018-01-24T16:41:02.273Z,-68
2018-01-24T16:42:02.189Z,-67
2018-01-24T16:43:02.335Z,-68
2018-01-24T16:44:02.206Z,-67
2018-01-24T16:45:02.291Z,-67
2018-01-24T16:46:02.162Z,-68
2018-01-24T16:47:02.272Z,-67
2018-01-24T16:48:02.157Z,-67
2018-01-24T16:49:02.280Z,-69
2018-01-24T16:50:02.570Z,-68
2018-01-24T16:51:02.280Z,-71
2018-01-24T16:52:02.229Z,-72
2018-01-24T16:53:02.275Z,-69
2018-01-24T16:54:02.173Z,-69
2018-01-24T16:55:02.357Z,-69
2018-01-24T16:56:02.596Z,-69
2018-01-24T16:57:02.282Z,-68
2018-01-24T16:58:02.224Z,-68
2018-01-24T16:59:02.289Z,-68
2018-01-24T17:00:02.168Z,-68
2018-01-24T17:01:02.297Z,-68
2018-01-24T17:02:02.208Z,-67
2018-01-24T17:03:02.310Z,-68
2018-01-24T17:04:02.177Z,-68
2018-01-24T17:05:02.293Z,-70
2018-01-24T17:06:02.184Z,-68
2018-01-24T17:07:02.291Z,-68
2018-01-24T17:08:02.226Z,-66
2018-01-24T17:09:02.290Z,-66
2018-01-24T17:10:02.180Z,-67
2018-01-24T17:11:02.345Z,-67
2018-01-24T17:12:02.182Z,-71
2018-01-24T17:13:02.306Z,-70
2018-01-24T17:14:02.235Z,-70
2018-01-24T17:15:02.359Z,-71
2018-01-24T17:16:02.187Z,-68
2018-01-24T17:17:02.370Z,-68
2018-01-24T17:18:02.177Z,-71
2018-01-24T17:19:02.323Z,-70
2018-01-24T17:20:02.615Z,-70
2018-01-24T17:21:02.306Z,-69
2018-01-24T17:22:02.226Z,-70
2018-01-24T17:23:02.307Z,-70
2018-01-24T17:24:02.209Z,-71
2018-01-24T17:25:02.298Z,-68
2018-01-24T17:26:02.234Z,-69
2018-01-24T17:27:02.313Z,-69
2018-01-24T17:28:02.214Z,-69
2018-01-24T17:29:02.327Z,-70
2018-01-24T17:30:02.196Z,-70
2018-01-24T17:31:02.314Z,-70
2018-01-24T17:32:02.233Z,-73
2018-01-24T17:33:02.414Z,-68
2018-01-24T17:34:02.223Z,-68
2018-01-24T17:35:02.789Z,-70
2018-01-24T17:36:02.200Z,-68
2018-01-24T17:37:02.337Z,-67
2018-01-24T17:38:02.310Z,-70
2018-01-24T17:39:02.336Z,-71
2018-01-24T17:40:02.198Z,-70
2018-01-24T17:41:02.324Z,-72
2018-01-24T17:42:02.211Z,-71
2018-01-24T17:43:02.307Z,-70
2018-01-24T17:44:02.662Z,-69
2018-01-24T17:45:02.339Z,-68
2018-01-24T17:46:02.206Z,-69
2018-01-24T17:47:02.323Z,-71
2018-01-24T17:48:03.257Z,-71
2018-01-24T17:49:02.336Z,-69
2018-01-24T17:50:02.645Z,-67
2018-01-24T17:51:02.387Z,-69
2018-01-24T17:52:02.220Z,-69
2018-01-24T17:53:02.326Z,-69
2018-01-24T17:54:02.598Z,-71
2018-01-24T17:55:02.343Z,-70
2018-01-24T17:56:02.242Z,-70
2018-01-24T17:57:02.342Z,-67
2018-01-24T17:58:02.242Z,-69
2018-01-24T17:59:02.331Z,-70
2018-01-24T18:00:02.220Z,-72
2018-01-24T18:01:02.330Z,-70
2018-01-24T18:02:02.336Z,-69
2018-01-24T18:03:02.328Z,-69
2018-01-24T18:04:02.222Z,-62
2018-01-24T18:05:02.332Z,-66
2018-01-24T18:06:02.221Z,-65
2018-01-24T18:07:02.371Z,-65
2018-01-24T18:08:02.241Z,-66
2018-01-24T18:09:02.356Z,-65
2018-01-24T18:10:02.244Z,-63
2018-01-24T18:11:02.335Z,-62
2018-01-24T18:12:02.235Z,-61
2018-01-24T18:13:02.729Z,-62
2018-01-24T18:14:02.291Z,-61
2018-01-24T18:15:02.360Z,-68
2018-01-24T18:16:02.241Z,-66
2018-01-24T18:17:02.400Z,-64
2018-01-24T18:18:02.233Z,-66
2018-01-24T18:19:02.830Z,-66
2018-01-24T18:20:02.232Z,-64
2018-01-24T18:21:02.334Z,-68
2018-01-24T18:22:02.244Z,-66
2018-01-24T18:23:02.348Z,-63
2018-01-24T18:24:02.241Z,-66
2018-01-24T18:25:02.381Z,-65
2018-01-24T18:26:02.255Z,-65
2018-01-24T18:27:02.352Z,-67
2018-01-24T18:28:02.252Z,-69
2018-01-24T18:29:02.357Z,-69
2018-01-24T18:30:02.259Z,-67
2018-01-24T18:31:02.383Z,-68
2018-01-24T18:32:02.259Z,-67
2018-01-24T18:33:02.364Z,-67
2018-01-24T18:34:02.249Z,-67
2018-01-24T18:35:02.378Z,-66
2018-01-24T18:36:02.298Z,-67
2018-01-24T18:37:02.928Z,-67
2018-01-24T18:38:02.260Z,-66
2018-01-24T18:39:02.365Z,-68
2018-01-24T18:40:02.243Z,-66
2018-01-24T18:41:02.555Z,-63
2018-01-24T18:42:02.643Z,-65
2018-01-24T18:43:02.997Z,-66
2018-01-24T18:44:02.259Z,-66
2018-01-24T18:45:02.380Z,-66
2018-01-24T18:46:02.267Z,-65
2018-01-24T18:47:02.369Z,-68
2018-01-24T18:48:02.255Z,-70
2018-01-24T18:49:02.414Z,-65
2018-01-24T18:50:02.266Z,-67
2018-01-24T18:51:02.370Z,-65
2018-01-24T18:52:02.257Z,-67
2018-01-24T18:53:02.386Z,-68
2018-01-24T18:54:02.279Z,-69
2018-01-24T18:55:02.526Z,-70
2018-01-24T18:56:02.345Z,-68
2018-01-24T18:57:02.410Z,-70
2018-01-24T18:58:02.947Z,-70
2018-01-24T18:59:05.674Z,-70
2018-01-24T19:00:02.324Z,-70
2018-01-24T19:01:03.543Z,-70
2018-01-24T19:02:02.264Z,-66
2018-01-24T19:03:02.370Z,-71
2018-01-24T19:04:02.270Z,-70
2018-01-24T19:05:02.402Z,-70
2018-01-24T19:06:02.269Z,-69
2018-01-24T19:07:02.543Z,-71
2018-01-24T19:08:02.289Z,-69
2018-01-24T19:09:02.411Z,-69
2018-01-24T19:10:02.274Z,-69
2018-01-24T19:11:02.378Z,-71
2018-01-24T19:12:02.282Z,-72
2018-01-24T19:13:02.515Z,-69
2018-01-24T19:14:02.294Z,-73
2018-01-24T19:15:02.467Z,-70
2018-01-24T19:16:02.287Z,-69
2018-01-24T19:17:02.401Z,-69
2018-01-24T19:18:02.316Z,-70
2018-01-24T19:19:02.430Z,-71
2018-01-24T19:20:02.933Z,-70
2018-01-24T19:21:02.505Z,-71
2018-01-24T19:22:02.276Z,-68
2018-01-24T19:23:02.397Z,-68
2018-01-24T19:24:02.285Z,-68
2018-01-24T19:25:02.443Z,-68
2018-01-24T19:26:02.283Z,-68
2018-01-24T19:27:02.398Z,-68
2018-01-24T19:28:02.296Z,-68
2018-01-24T19:29:02.459Z,-67
2018-01-24T19:30:02.289Z,-69
2018-01-24T19:31:02.494Z,-68
2018-01-24T19:32:02.289Z,-66
2018-01-24T19:33:02.420Z,-67
2018-01-24T19:34:02.387Z,-67
2018-01-24T19:35:02.430Z,-66
2018-01-24T19:36:02.284Z,-66
2018-01-24T19:37:02.845Z,-68
2018-01-24T19:38:02.294Z,-69
2018-01-24T19:39:02.418Z,-69
2018-01-24T19:40:02.312Z,-67
2018-01-24T19:41:02.413Z,-68
2018-01-24T19:42:02.300Z,-66
2018-01-24T19:43:02.608Z,-67
2018-01-24T19:44:02.361Z,-66
2018-01-24T19:45:02.441Z,-70
2018-01-24T19:46:02.311Z,-68
2018-01-24T19:47:02.421Z,-66
2018-01-24T19:48:02.310Z,-65
2018-01-24T19:49:02.448Z,-67
2018-01-24T19:50:02.306Z,-67
2018-01-24T19:51:02.711Z,-66
2018-01-24T19:52:02.314Z,-68
2018-01-24T19:53:02.434Z,-68
2018-01-24T19:54:02.303Z,-69
2018-01-24T19:55:02.474Z,-69
2018-01-24T19:56:02.321Z,-70
2018-01-24T19:57:02.424Z,-71
2018-01-24T19:58:02.323Z,-71
2018-01-24T19:59:02.442Z,-69
2018-01-24T20:00:02.326Z,-66
2018-01-24T20:01:02.835Z,-67
